Time;durP1;ratioP1;P1;durP2;ratioP2;P2;SDS_P1;SDS_P2;PMS_P1;PMS_P2;Temp;Humidity;BMP_temperature;BMP_pressure;BME280_temperature;BME280_humidity;BME280_pressure;Samples;Min_cycle;Max_cycle;Signal;HPM_P1;HPM_P2
2022/06/01 00:02:27;;;;;;;;;;;24.30;29.60;;;;;;21169808;28;20368;-64
2022/06/01 00:12:34;;;;;;;;;;;24.40;29.60;;;;;;21169366;28;20284;-63
2022/06/01 00:22:36;;;;;;;;;;;24.20;30.00;;;;;;21167360;28;19924;-64
2022/06/01 00:32:38;;;;;;;;;;;24.00;30.40;;;;;;21166744;28;19986;-63
2022/06/01 00:42:39;;;;;;;;;;;;;;;;;;21166074;28;20348;-65
2022/06/01 00:52:45;;;;;;;;;;;23.70;31.10;;;;;;21165116;28;19923;-65
2022/06/01 01:02:49;;;;;;;;;;;23.50;31.20;;;;;;21164789;28;19931;-64
2022/06/01 01:12:58;;;;;;;;;;;23.40;31.80;;;;;;21164339;28;19924;-66
2022/06/01 01:23:41;;;;;;;;;;;23.30;32.20;;;;;;21163529;28;19935;-64
2022/06/01 01:33:44;;;;;;;;;;;23.10;32.80;;;;;;20986197;28;20006;-65
2022/06/01 01:44:06;;;;;;;;;;;23.00;33.40;;;;;;20970053;28;19931;-66
2022/06/01 01:54:14;;;;;;;;;;;22.90;33.20;;;;;;20985668;28;19959;-61
2022/06/01 02:15:16;;;;;;;;;;;22.70;33.50;;;;;;21174825;28;19977;-64
2022/06/01 02:25:39;;;;;;;;;;;22.60;33.90;;;;;;21176757;28;19976;-61
2022/06/01 02:36:02;;;;;;;;;;;22.50;34.40;;;;;;21177831;28;19946;-64
2022/06/01 02:46:18;;;;;;;;;;;22.40;34.50;;;;;;21175935;28;20295;-65
2022/06/01 02:56:39;;;;;;;;;;;22.30;34.80;;;;;;21173902;28;19931;-61
2022/06/01 03:07:02;;;;;;;;;;;22.30;34.60;;;;;;21173691;28;19924;-65
2022/06/01 03:17:07;;;;;;;;;;;22.30;35.30;;;;;;21172878;28;20343;-62
2022/06/01 03:27:13;;;;;;;;;;;22.20;35.10;;;;;;21171639;28;19940;-61
2022/06/01 03:37:19;;;;;;;;;;;22.10;35.30;;;;;;21171132;28;19924;-61
2022/06/01 03:47:29;;;;;;;;;;;22.00;35.60;;;;;;21169704;28;19930;-61
2022/06/01 03:57:38;;;;;;;;;;;;;;;;;;21168580;28;19976;-61
2022/06/01 04:07:43;;;;;;;;;;;;;;;;;;21168240;28;19968;-66
2022/06/01 04:17:50;;;;;;;;;;;;;;;;;;21168438;28;19923;-63
2022/06/01 04:27:53;;;;;;;;;;;;;;;;;;21167477;28;19928;-62
2022/06/01 04:38:12;;;;;;;;;;;;;;;;;;21167015;28;19993;-64
2022/06/01 04:48:18;;;;;;;;;;;21.90;35.70;;;;;;21165186;28;19924;-67
2022/06/01 04:58:20;;;;;;;;;;;21.50;36.20;;;;;;21181042;27;19947;-66
2022/06/01 05:08:22;;;;;;;;;;;21.10;36.90;;;;;;21164703;28;19924;-67
2022/06/01 05:18:24;;;;;;;;;;;20.90;37.40;;;;;;21164868;28;20291;-62
2022/06/01 05:28:28;;;;;;;;;;;21.00;37.30;;;;;;21167312;28;20290;-65
2022/06/01 05:38:29;;;;;;;;;;;21.10;37.20;;;;;;21163034;28;19931;-65
2022/06/01 05:48:31;;;;;;;;;;;21.00;37.30;;;;;;21175718;28;19946;-62
2022/06/01 05:58:33;;;;;;;;;;;20.90;37.70;;;;;;21178657;28;19928;-66
2022/06/01 06:08:34;;;;;;;;;;;21.00;38.10;;;;;;21193954;27;20397;-66
2022/06/01 06:18:37;;;;;;;;;;;21.00;38.10;;;;;;21177692;28;20008;-65
2022/06/01 06:28:39;;;;;;;;;;;21.00;38.00;;;;;;21175867;28;20390;-65
2022/06/01 06:38:41;;;;;;;;;;;21.00;37.90;;;;;;21176351;28;19946;-63
2022/06/01 06:48:45;;;;;;;;;;;21.30;37.90;;;;;;21174629;28;19983;-63
2022/06/01 06:58:46;;;;;;;;;;;;;;;;;;21172578;28;19924;-61
2022/06/01 07:08:50;;;;;;;;;;;23.20;35.00;;;;;;21173973;28;20382;-63
2022/06/01 07:18:53;;;;;;;;;;;24.00;33.00;;;;;;21187743;27;19928;-64
2022/06/01 07:28:55;;;;;;;;;;;24.50;32.90;;;;;;21172412;28;20364;-66
2022/06/01 07:49:18;;;;;;;;;;;25.70;31.40;;;;;;21170396;28;20414;-65
2022/06/01 07:59:20;;;;;;;;;;;26.20;30.60;;;;;;21169888;28;20426;-67
2022/06/01 08:09:22;;;;;;;;;;;26.40;30.50;;;;;;21167734;28;19923;-66
2022/06/01 08:19:25;;;;;;;;;;;26.50;30.30;;;;;;21167524;28;20002;-68
2022/06/01 08:29:27;;;;;;;;;;;27.00;29.80;;;;;;21167750;28;19923;-67
2022/06/01 08:39:28;;;;;;;;;;;27.40;29.70;;;;;;21167469;28;19993;-67
2022/06/01 08:49:33;;;;;;;;;;;27.80;29.90;;;;;;21167780;28;19923;-67
2022/06/01 08:59:47;;;;;;;;;;;27.70;30.60;;;;;;21165944;28;20339;-67
2022/06/01 09:10:09;;;;;;;;;;;27.80;30.70;;;;;;21165681;28;20025;-64
2022/06/01 09:30:32;;;;;;;;;;;27.70;30.50;;;;;;20992145;28;19966;-65
2022/06/01 09:40:36;;;;;;;;;;;27.40;30.80;;;;;;20971823;28;19924;-64
2022/06/01 09:50:39;;;;;;;;;;;27.80;30.40;;;;;;21033061;28;19924;-61
2022/06/01 10:11:09;;;;;;;;;;;28.20;28.70;;;;;;21240524;28;20011;-60
2022/06/01 10:21:17;;;;;;;;;;;28.20;29.20;;;;;;21203111;28;19950;-62
2022/06/01 10:31:31;;;;;;;;;;;28.00;29.00;;;;;;21168500;28;19967;-66
2022/06/01 10:41:39;;;;;;;;;;;28.00;29.80;;;;;;21172780;28;20494;-58
2022/06/01 10:51:41;;;;;;;;;;;28.10;30.00;;;;;;21172916;28;20332;-62
2022/06/01 11:01:54;;;;;;;;;;;27.90;29.00;;;;;;21172507;28;19931;-57
2022/06/01 11:11:56;;;;;;;;;;;28.20;30.10;;;;;;21168506;28;19946;-60
2022/06/01 11:22:03;;;;;;;;;;;27.90;29.90;;;;;;21171743;28;19924;-60
2022/06/01 11:32:10;;;;;;;;;;;28.20;30.20;;;;;;21160976;28;19935;-59
2022/06/01 11:42:32;;;;;;;;;;;28.10;30.30;;;;;;21085371;28;19931;-61
2022/06/01 11:52:40;;;;;;;;;;;28.20;30.10;;;;;;21067143;28;19928;-56
2022/06/01 12:02:45;;;;;;;;;;;;;;;;;;21088282;28;20307;-58
2022/06/01 12:12:57;;;;;;;;;;;28.90;29.80;;;;;;21069157;28;19931;-56
2022/06/01 12:33:31;;;;;;;;;;;28.50;30.60;;;;;;21165761;28;20422;-67
2022/06/01 12:43:34;;;;;;;;;;;28.50;30.50;;;;;;21165498;28;20367;-67
2022/06/01 12:53:49;;;;;;;;;;;28.60;30.20;;;;;;21164825;28;20394;-67
2022/06/01 13:03:57;;;;;;;;;;;28.60;29.70;;;;;;21163882;28;19924;-69
2022/06/01 13:14:00;;;;;;;;;;;28.70;29.90;;;;;;21162663;28;20058;-69
2022/06/01 13:24:08;;;;;;;;;;;28.90;29.90;;;;;;21144356;28;19931;-68
2022/06/01 13:34:17;;;;;;;;;;;29.00;30.00;;;;;;21161672;28;19927;-65
2022/06/01 13:44:38;;;;;;;;;;;29.20;29.80;;;;;;21162328;28;19931;-65
2022/06/01 13:54:40;;;;;;;;;;;29.20;30.40;;;;;;21162674;28;20002;-70
2022/06/01 14:04:43;;;;;;;;;;;29.40;29.10;;;;;;21163455;28;19927;-67
2022/06/01 14:14:46;;;;;;;;;;;29.90;28.30;;;;;;21177341;28;19924;-67
2022/06/01 14:35:08;;;;;;;;;;;29.70;28.30;;;;;;21175580;28;20340;-69
2022/06/01 14:45:10;;;;;;;;;;;29.60;29.90;;;;;;21174912;28;19946;-68
2022/06/01 14:55:11;;;;;;;;;;;29.10;30.80;;;;;;21173598;28;19946;-68
2022/06/01 15:05:14;;;;;;;;;;;29.40;29.80;;;;;;21173361;28;19924;-69
2022/06/01 15:15:16;;;;;;;;;;;29.40;30.00;;;;;;21172170;28;19951;-67
2022/06/01 15:25:18;;;;;;;;;;;29.30;31.00;;;;;;21171653;28;19924;-69
2022/06/01 15:45:40;;;;;;;;;;;29.20;31.00;;;;;;21169935;28;19930;-66
2022/06/01 15:55:42;;;;;;;;;;;28.80;31.40;;;;;;21169643;28;19992;-69
2022/06/01 16:05:44;;;;;;;;;;;29.20;30.80;;;;;;21168686;28;19935;-69
2022/06/01 16:15:47;;;;;;;;;;;29.30;30.60;;;;;;21165784;28;19924;-54
2022/06/01 16:25:49;;;;;;;;;;;29.50;29.90;;;;;;21065542;28;19932;-56
2022/06/01 16:35:50;;;;;;;;;;;29.30;30.10;;;;;;21071403;28;20371;-58
2022/06/01 16:45:54;;;;;;;;;;;29.10;30.10;;;;;;21062884;28;20197;-63
2022/06/01 16:55:56;;;;;;;;;;;29.20;30.00;;;;;;21065315;28;19991;-62
2022/06/01 17:05:58;;;;;;;;;;;29.00;30.50;;;;;;21079916;28;19931;-64
2022/06/01 17:15:59;;;;;;;;;;;28.80;31.60;;;;;;21100950;28;20401;-72
2022/06/01 17:26:01;;;;;;;;;;;28.50;32.20;;;;;;21175653;28;19931;-70
2022/06/01 17:36:04;;;;;;;;;;;28.40;32.20;;;;;;21164547;28;20316;-71
2022/06/01 17:46:05;;;;;;;;;;;28.40;32.20;;;;;;21177763;28;19993;-70
2022/06/01 17:56:14;;;;;;;;;;;28.20;33.20;;;;;;21178439;28;19924;-69
2022/06/01 18:06:16;;;;;;;;;;;28.00;33.50;;;;;;21177236;28;20055;-60
2022/06/01 18:16:18;;;;;;;;;;;27.90;33.50;;;;;;21176216;28;20231;-61
2022/06/01 18:26:21;;;;;;;;;;;27.80;33.60;;;;;;21162176;28;20010;-63
2022/06/01 18:36:23;;;;;;;;;;;27.70;33.60;;;;;;21175494;28;20371;-61
2022/06/01 18:46:25;;;;;;;;;;;27.70;34.50;;;;;;21261000;27;19969;-67
2022/06/01 18:56:26;;;;;;;;;;;27.60;34.50;;;;;;21257792;27;20007;-62
2022/06/01 19:06:29;;;;;;;;;;;27.40;34.50;;;;;;21256496;27;19974;-64
2022/06/01 19:16:33;;;;;;;;;;;27.40;34.80;;;;;;21255683;27;19959;-65
2022/06/01 19:26:35;;;;;;;;;;;27.20;34.90;;;;;;21256749;27;20323;-62
2022/06/01 19:46:58;;;;;;;;;;;;;;;;;;21255624;27;19948;-67
2022/06/01 19:57:00;;;;;;;;;;;;;;;;;;21253898;27;19923;-65
2022/06/01 20:07:02;;;;;;;;;;;26.40;36.70;;;;;;21253960;27;20443;-68
2022/06/01 20:17:03;;;;;;;;;;;26.30;37.10;;;;;;21252483;27;19923;-66
2022/06/01 20:27:05;;;;;;;;;;;26.20;37.10;;;;;;21253242;27;20018;-64
2022/06/01 20:37:08;;;;;;;;;;;26.10;37.30;;;;;;21273124;27;19924;-67
2022/06/01 20:47:11;;;;;;;;;;;25.90;37.70;;;;;;21251333;27;20283;-72
2022/06/01 20:57:13;;;;;;;;;;;25.80;38.60;;;;;;21249484;27;19931;-65
2022/06/01 21:07:16;;;;;;;;;;;25.70;39.30;;;;;;21249623;27;19931;-72
2022/06/01 21:17:19;;;;;;;;;;;25.40;39.70;;;;;;21248681;27;19934;-68
2022/06/01 21:27:21;;;;;;;;;;;25.30;40.30;;;;;;21248719;27;20375;-69
2022/06/01 21:37:23;;;;;;;;;;;25.10;40.90;;;;;;21248791;28;20013;-72
2022/06/01 21:47:26;;;;;;;;;;;24.90;41.90;;;;;;21247861;28;19957;-71
2022/06/01 21:57:27;;;;;;;;;;;24.80;42.20;;;;;;21248365;28;19931;-70
2022/06/01 22:07:29;;;;;;;;;;;24.70;42.40;;;;;;21247471;28;20236;-73
2022/06/01 22:17:31;;;;;;;;;;;24.50;43.20;;;;;;21246763;28;19935;-72
2022/06/01 22:27:33;;;;;;;;;;;24.30;43.50;;;;;;21254657;27;19924;-66
2022/06/01 22:37:35;;;;;;;;;;;24.30;44.10;;;;;;21263564;27;19972;-68
2022/06/01 22:47:45;;;;;;;;;;;24.20;43.70;;;;;;21260697;27;20014;-64
2022/06/01 22:57:46;;;;;;;;;;;24.10;44.00;;;;;;21261882;27;19946;-70
2022/06/01 23:07:48;;;;;;;;;;;24.00;44.10;;;;;;21261072;27;20350;-66
2022/06/01 23:17:50;;;;;;;;;;;24.00;43.90;;;;;;21259644;27;19974;-74
2022/06/01 23:27:51;;;;;;;;;;;23.90;44.30;;;;;;21258658;27;20014;-72
2022/06/01 23:38:11;;;;;;;;;;;23.90;43.90;;;;;;21256265;27;19930;-71
2022/06/01 23:48:24;;;;;;;;;;;23.80;44.10;;;;;;21256968;27;19983;-66
2022/06/01 23:58:45;;;;;;;;;;;23.70;44.50;;;;;;21255064;27;20034;-69
